Time;durP1;ratioP1;P1;durP2;ratioP2;P2;SDS_P1;SDS_P2;PMS_P1;PMS_P2;Temp;Humidity;BMP_temperature;BMP_pressure;BME280_temperature;BME280_humidity;BME280_pressure;Samples;Min_cycle;Max_cycle;Signal;HPM_P1;HPM_P2
2022/04/13 00:02:10;;;;;;;5.28;4.55;;;13.30;99.90;;;;;;4979303;28;20076;-79
2022/04/13 00:04:35;;;;;;;6.00;4.38;;;13.30;99.90;;;;;;4983102;28;20039;-79
2022/04/13 00:07:01;;;;;;;9.95;5.18;;;14.40;99.90;;;;;;4983643;28;20046;-80
2022/04/13 00:09:26;;;;;;;4.68;4.13;;;14.50;99.90;;;;;;4965288;28;20054;-79
2022/04/13 00:11:54;;;;;;;8.35;4.65;;;13.00;99.90;;;;;;4978909;28;20468;-80
2022/04/13 00:14:22;;;;;;;8.13;4.63;;;14.20;99.90;;;;;;4963132;28;20501;-79
2022/04/13 00:16:49;;;;;;;6.35;4.70;;;13.00;99.90;;;;;;4982795;28;20846;-79
2022/04/13 00:19:15;;;;;;;6.82;5.45;;;13.20;99.90;;;;;;4966703;28;20113;-79
2022/04/13 00:21:40;;;;;;;6.85;5.25;;;13.70;99.90;;;;;;4979574;28;20415;-80
2022/04/13 00:24:06;;;;;;;9.65;5.38;;;13.00;99.90;;;;;;4962238;28;20137;-79
2022/04/13 00:26:33;;;;;;;7.97;5.10;;;13.00;99.90;;;;;;4963946;28;20081;-79
2022/04/13 00:28:58;;;;;;;9.52;5.43;;;13.00;99.90;;;;;;4982394;28;20049;-80
2022/04/13 00:31:24;;;;;;;6.88;5.65;;;14.20;99.90;;;;;;4981449;28;20046;-81
2022/04/13 00:33:50;;;;;;;6.63;5.43;;;13.00;99.90;;;;;;4962782;28;20129;-79
2022/04/13 00:36:15;;;;;;;10.57;5.63;;;12.70;99.90;;;;;;4979588;28;20059;-79
2022/04/13 00:38:41;;;;;;;6.57;5.43;;;12.90;99.90;;;;;;4965016;28;20569;-79
2022/04/13 00:41:07;;;;;;;6.93;5.57;;;14.30;99.90;;;;;;4982189;28;20049;-80
2022/04/13 00:43:32;;;;;;;9.57;6.03;;;12.80;99.90;;;;;;4963858;28;20046;-79
2022/04/13 00:45:58;;;;;;;8.75;5.68;;;12.80;99.90;;;;;;4979525;28;20491;-80
2022/04/13 00:48:39;;;;;;;7.68;5.82;;;12.80;99.90;;;;;;4979246;28;20046;-79
2022/04/13 00:51:06;;;;;;;9.52;5.88;;;12.80;99.90;;;;;;4981300;28;20117;-79
2022/04/13 00:53:34;;;;;;;8.23;5.53;;;12.70;99.90;;;;;;4980478;28;20090;-78
2022/04/13 00:56:02;;;;;;;8.07;5.22;;;12.70;99.90;;;;;;4962220;28;20038;-79
2022/04/13 00:58:31;;;;;;;7.95;5.80;;;12.70;99.90;;;;;;4979766;28;20294;-78
2022/04/13 01:00:57;;;;;;;8.25;6.25;;;12.80;99.90;;;;;;4966099;28;20038;-78
2022/04/13 01:03:25;;;;;;;9.50;6.00;;;12.90;99.90;;;;;;4965728;28;20048;-78
2022/04/13 01:05:53;;;;;;;9.90;6.38;;;12.80;99.90;;;;;;4977013;28;20121;-78
2022/04/13 01:08:20;;;;;;;8.50;6.43;;;12.70;99.90;;;;;;4979722;28;20050;-78
2022/04/13 01:10:47;;;;;;;7.47;5.68;;;12.40;99.90;;;;;;4982436;28;20383;-78
2022/04/13 01:13:14;;;;;;;7.82;5.78;;;12.70;99.90;;;;;;4982424;28;20093;-79
2022/04/13 01:15:40;;;;;;;8.13;6.22;;;12.60;99.90;;;;;;4963131;28;20506;-78
2022/04/13 01:18:06;;;;;;;8.85;6.30;;;12.80;99.90;;;;;;4979297;28;20043;-79
2022/04/13 01:20:34;;;;;;;8.52;5.80;;;12.60;99.90;;;;;;4978853;28;20093;-78
2022/04/13 01:23:00;;;;;;;7.65;6.38;;;12.60;99.90;;;;;;4982523;28;20042;-78
2022/04/13 01:25:26;;;;;;;7.63;6.65;;;12.60;99.90;;;;;;4981869;28;20054;-78
2022/04/13 01:27:52;;;;;;;7.65;6.72;;;12.00;99.90;;;;;;4961449;28;20670;-78
2022/04/13 01:30:18;;;;;;;11.13;7.40;;;12.50;99.90;;;;;;4978198;28;20126;-78
2022/04/13 01:32:43;;;;;;;11.90;7.57;;;12.50;99.90;;;;;;4963318;28;20057;-78
2022/04/13 01:35:09;;;;;;;8.80;7.00;;;12.50;99.90;;;;;;4981400;28;20092;-78
2022/04/13 01:37:35;;;;;;;9.15;7.90;;;12.50;99.90;;;;;;4979417;28;20133;-79
2022/04/13 01:40:01;;;;;;;11.82;6.90;;;12.50;99.90;;;;;;4960907;28;20046;-79
2022/04/13 01:42:28;;;;;;;10.07;8.00;;;12.40;99.90;;;;;;4979303;28;20131;-79
2022/04/13 01:44:54;;;;;;;12.82;8.07;;;12.50;99.90;;;;;;4980984;28;20045;-79
2022/04/13 01:47:19;;;;;;;13.55;8.18;;;12.20;99.90;;;;;;4980502;28;20441;-79
2022/04/13 01:49:45;;;;;;;11.43;7.93;;;12.30;99.90;;;;;;4961784;28;20758;-79
2022/04/13 01:52:11;;;;;;;14.50;8.77;;;13.30;99.90;;;;;;4961770;28;20051;-78
2022/04/13 01:54:37;;;;;;;12.10;9.05;;;12.30;99.90;;;;;;4978312;28;20275;-79
2022/04/13 01:57:03;;;;;;;11.13;8.68;;;12.40;99.90;;;;;;4964608;28;20396;-79
2022/04/13 01:59:29;;;;;;;12.60;8.70;;;12.40;99.90;;;;;;4964249;28;20061;-78
2022/04/13 02:01:55;;;;;;;13.80;9.43;;;13.80;99.90;;;;;;4960252;28;20035;-78
2022/04/13 02:04:23;;;;;;;12.48;9.18;;;12.30;99.90;;;;;;4977506;28;20043;-79
2022/04/13 02:06:49;;;;;;;17.02;9.50;;;13.60;99.90;;;;;;4963446;28;20408;-79
2022/04/13 02:09:16;;;;;;;13.90;9.23;;;14.00;99.90;;;;;;4964069;28;20042;-79
2022/04/13 02:11:42;;;;;;;16.65;9.80;;;12.80;99.90;;;;;;4978477;28;20046;-79
2022/04/13 02:14:07;;;;;;;12.95;9.07;;;12.40;99.90;;;;;;4960901;28;20093;-78
2022/04/13 02:16:35;;;;;;;12.23;8.75;;;13.60;99.90;;;;;;4978027;28;20491;-78
2022/04/13 02:19:00;;;;;;;16.17;10.23;;;12.00;99.90;;;;;;4963525;28;20077;-78
2022/04/13 02:21:26;;;;;;;14.48;8.90;;;12.30;99.90;;;;;;4980322;28;20085;-78
2022/04/13 02:23:52;;;;;;;14.43;8.88;;;13.50;99.90;;;;;;4975881;28;20054;-79
2022/04/13 02:26:19;;;;;;;12.15;10.43;;;12.50;99.90;;;;;;4978046;28;20051;-79
2022/04/13 02:28:46;;;;;;;15.30;10.02;;;14.00;99.90;;;;;;4961860;28;20193;-78
2022/04/13 02:31:11;;;;;;;13.15;10.23;;;13.40;99.90;;;;;;4980469;28;20042;-79
2022/04/13 02:33:37;;;;;;;12.70;10.13;;;12.30;99.90;;;;;;4978726;28;20394;-79
2022/04/13 02:36:03;;;;;;;15.32;10.52;;;13.70;99.90;;;;;;4959634;28;20357;-78
2022/04/13 02:38:28;;;;;;;17.33;10.77;;;12.30;99.90;;;;;;4960307;28;20059;-78
2022/04/13 02:40:56;;;;;;;17.60;10.88;;;12.30;99.90;;;;;;4976683;28;20047;-79
2022/04/13 02:43:24;;;;;;;17.25;10.68;;;12.30;99.90;;;;;;4975817;28;20047;-79
2022/04/13 02:45:50;;;;;;;14.25;12.02;;;12.30;99.90;;;;;;4978685;28;20081;-78
2022/04/13 02:48:16;;;;;;;17.27;11.80;;;12.20;99.90;;;;;;4980166;28;20042;-78
2022/04/13 02:50:41;;;;;;;13.05;10.65;;;12.10;99.90;;;;;;4978637;28;20089;-78
2022/04/13 02:53:07;;;;;;;17.45;11.70;;;13.70;99.90;;;;;;4960097;28;20097;-77
2022/04/13 02:55:33;;;;;;;15.73;10.93;;;12.10;99.90;;;;;;4975861;28;20058;-78
2022/04/13 02:57:59;;;;;;;13.75;11.27;;;12.00;99.90;;;;;;4978947;28;20549;-79
2022/04/13 03:00:24;;;;;;;18.80;11.32;;;12.10;99.90;;;;;;4979826;28;20049;-78
2022/04/13 03:02:50;;;;;;;16.25;10.85;;;13.00;99.90;;;;;;4976721;28;20046;-78
2022/04/13 03:05:16;;;;;;;15.55;11.68;;;11.20;99.90;;;;;;4975935;28;20054;-79
2022/04/13 03:07:42;;;;;;;13.95;11.13;;;11.60;99.90;;;;;;4977726;28;20046;-78
2022/04/13 03:10:08;;;;;;;14.07;11.88;;;12.50;99.90;;;;;;4979527;28;20379;-78
2022/04/13 03:12:34;;;;;;;14.70;11.10;;;12.00;99.90;;;;;;4978249;28;20042;-79
2022/04/13 03:15:01;;;;;;;21.75;13.13;;;11.90;99.90;;;;;;4975190;28;20046;-80
2022/04/13 03:17:27;;;;;;;14.63;12.00;;;12.00;99.90;;;;;;4976121;28;20143;-79
2022/04/13 03:19:53;;;;;;;17.77;12.43;;;11.50;99.90;;;;;;4962080;28;20457;-80
2022/04/13 03:22:22;;;;;;;17.33;12.20;;;12.50;99.90;;;;;;4979484;28;20046;-79
2022/04/13 03:24:48;;;;;;;18.35;12.60;;;11.90;99.90;;;;;;4960230;28;20054;-78
2022/04/13 03:27:13;;;;;;;21.00;13.55;;;13.30;99.90;;;;;;4959414;28;20047;-79
2022/04/13 03:29:39;;;;;;;22.55;13.15;;;11.90;99.90;;;;;;4976745;28;20174;-78
2022/04/13 03:32:05;;;;;;;17.50;12.23;;;12.50;99.90;;;;;;4982802;28;20049;-79
2022/04/13 03:34:31;;;;;;;16.20;11.70;;;11.90;99.90;;;;;;4967583;28;20054;-79
2022/04/13 03:36:57;;;;;;;14.50;11.60;;;11.70;99.90;;;;;;4980163;28;20045;-79
2022/04/13 03:39:23;;;;;;;14.93;12.70;;;13.30;99.90;;;;;;4981328;28;20051;-78
2022/04/13 03:41:49;;;;;;;18.05;12.50;;;11.50;99.90;;;;;;4982061;28;20066;-78
2022/04/13 03:44:14;;;;;;;15.80;11.75;;;11.60;99.90;;;;;;4967411;28;20496;-79
2022/04/13 03:46:40;;;;;;;16.30;11.93;;;12.70;99.90;;;;;;4965401;28;20422;-78
2022/04/13 03:49:07;;;;;;;15.57;12.52;;;12.70;99.90;;;;;;4979929;28;20049;-79
2022/04/13 03:51:33;;;;;;;19.08;13.02;;;13.30;99.90;;;;;;4963900;28;20039;-79
2022/04/13 03:53:58;;;;;;;15.00;11.50;;;11.70;99.90;;;;;;4982688;28;20475;-80
2022/04/13 03:56:24;;;;;;;19.58;12.80;;;11.70;99.90;;;;;;4966705;28;20053;-79
2022/04/13 03:58:50;;;;;;;16.15;12.00;;;11.50;99.90;;;;;;4981626;28;20049;-79
2022/04/13 04:01:15;;;;;;;19.00;12.50;;;11.80;99.90;;;;;;4979015;28;20053;-79
2022/04/13 04:03:41;;;;;;;18.55;12.80;;;11.80;99.90;;;;;;4980892;28;20113;-79
2022/04/13 04:06:07;;;;;;;16.13;13.05;;;11.50;99.90;;;;;;4982877;28;20042;-79
2022/04/13 04:08:32;;;;;;;17.85;12.38;;;13.10;99.90;;;;;;4966153;28;20038;-79
2022/04/13 04:10:58;;;;;;;23.05;13.00;;;13.20;99.90;;;;;;4963974;28;20037;-79
2022/04/13 04:13:24;;;;;;;19.10;12.60;;;11.70;99.90;;;;;;4979741;28;20051;-79
2022/04/13 04:15:50;;;;;;;21.13;13.32;;;11.70;99.90;;;;;;4980050;28;20501;-78
2022/04/13 04:18:15;;;;;;;15.90;12.43;;;11.70;99.90;;;;;;4951157;28;20504;-78
2022/04/13 04:20:41;;;;;;;18.15;13.98;;;11.60;99.90;;;;;;4965938;28;20594;-78
2022/04/13 04:23:07;;;;;;;16.08;13.20;;;13.10;99.90;;;;;;4962685;28;20050;-79
2022/04/13 04:25:32;;;;;;;20.05;12.65;;;11.60;99.90;;;;;;4978518;28;20049;-78
2022/04/13 04:27:58;;;;;;;22.23;13.45;;;11.60;99.90;;;;;;4966461;28;20046;-78
2022/04/13 04:30:24;;;;;;;21.23;14.52;;;12.90;99.90;;;;;;4965994;28;20513;-78
2022/04/13 04:32:49;;;;;;;22.10;14.52;;;11.40;99.90;;;;;;4964128;28;20069;-78
2022/04/13 04:35:15;;;;;;;22.20;13.45;;;13.00;99.90;;;;;;4978549;28;20395;-78
2022/04/13 04:37:41;;;;;;;19.45;13.68;;;11.60;99.90;;;;;;4963595;28;20050;-78
2022/04/13 04:40:07;;;;;;;20.52;13.00;;;11.00;99.90;;;;;;4966553;28;20046;-79
2022/04/13 04:42:48;;;;;;;20.60;13.38;;;11.50;99.90;;;;;;4982026;28;20042;-79
2022/04/13 04:45:18;;;;;;;21.95;13.80;;;11.60;99.90;;;;;;4979081;28;20121;-78
2022/04/13 04:47:43;;;;;;;17.70;13.05;;;11.50;99.90;;;;;;4979388;28;20213;-78
2022/04/13 04:50:12;;;;;;;20.88;12.75;;;11.20;99.90;;;;;;4965697;28;20078;-78
2022/04/13 04:52:42;;;;;;;22.75;14.98;;;11.50;99.90;;;;;;4982122;28;20042;-79
2022/04/13 04:55:12;;;;;;;21.40;13.90;;;12.50;99.90;;;;;;4963111;28;20119;-79
2022/04/13 04:57:38;;;;;;;20.05;13.88;;;11.50;99.90;;;;;;4978342;28;20039;-78
2022/04/13 05:00:10;;;;;;;22.98;14.88;;;11.90;99.90;;;;;;4962412;28;20054;-79
2022/04/13 05:02:37;;;;;;;31.38;20.40;;;11.50;99.90;;;;;;4978735;28;20047;-78
2022/04/13 05:05:06;;;;;;;25.90;16.08;;;11.50;99.90;;;;;;4981016;28;20046;-78
2022/04/13 05:07:33;;;;;;;19.63;15.13;;;11.50;99.90;;;;;;4981969;28;20065;-78
2022/04/13 05:09:59;;;;;;;22.17;16.27;;;11.50;99.90;;;;;;4963305;28;20129;-78
2022/04/13 05:12:25;;;;;;;21.70;15.02;;;11.30;99.90;;;;;;4962067;28;20070;-76
2022/04/13 05:14:54;;;;;;;22.17;15.98;;;11.50;99.90;;;;;;4963732;28;20079;-78
2022/04/13 05:17:23;;;;;;;22.55;15.68;;;12.10;99.90;;;;;;4965875;28;20057;-78
2022/04/13 05:19:48;;;;;;;24.90;17.17;;;11.50;99.90;;;;;;4981615;28;20042;-79
2022/04/13 05:22:17;;;;;;;24.73;15.95;;;11.40;99.90;;;;;;4978516;28;20516;-78
2022/04/13 05:24:43;;;;;;;23.05;16.20;;;11.50;99.90;;;;;;4977712;28;20062;-78
2022/04/13 05:27:09;;;;;;;25.10;15.98;;;11.50;99.90;;;;;;4949703;28;20038;-78
2022/04/13 05:29:35;;;;;;;36.50;24.27;;;11.50;99.90;;;;;;4981823;28;20100;-78
2022/04/13 05:32:02;;;;;;;21.92;17.63;;;11.30;99.90;;;;;;4962195;28;20487;-78
2022/04/13 05:34:27;;;;;;;24.65;17.00;;;11.50;99.90;;;;;;4979645;28;20054;-78
2022/04/13 05:36:55;;;;;;;26.52;16.33;;;11.20;99.90;;;;;;4963127;28;20089;-78
2022/04/13 05:39:20;;;;;;;27.42;16.65;;;11.30;99.90;;;;;;4965157;28;20112;-78
2022/04/13 05:41:46;;;;;;;22.85;16.85;;;11.50;99.90;;;;;;4964041;28;20486;-78
2022/04/13 05:44:11;;;;;;;23.63;16.45;;;12.80;99.90;;;;;;4961988;28;20046;-78
2022/04/13 05:46:37;;;;;;;21.73;15.55;;;12.70;99.90;;;;;;4977361;28;20622;-78
2022/04/13 05:49:03;;;;;;;28.77;17.27;;;11.50;99.90;;;;;;4981879;28;20586;-79
2022/04/13 05:51:29;;;;;;;26.88;17.60;;;10.70;99.90;;;;;;4965023;28;20065;-77
2022/04/13 05:53:55;;;;;;;26.10;16.50;;;13.20;99.90;;;;;;4978005;28;20046;-79
2022/04/13 05:56:21;;;;;;;23.67;16.23;;;12.30;99.90;;;;;;4978745;28;20050;-78
2022/04/13 05:58:47;;;;;;;26.85;17.08;;;11.60;99.90;;;;;;4961476;28;20523;-78
2022/04/13 06:01:12;;;;;;;24.00;16.55;;;11.50;99.90;;;;;;4980709;28;20569;-77
2022/04/13 06:03:38;;;;;;;26.23;16.65;;;11.60;99.90;;;;;;4981859;28;20133;-80
2022/04/13 06:06:03;;;;;;;29.00;16.98;;;11.60;99.90;;;;;;4961991;28;20089;-81
2022/04/13 06:08:29;;;;;;;30.98;17.17;;;11.60;99.90;;;;;;4985718;28;20049;-78
2022/04/13 06:10:54;;;;;;;24.73;16.25;;;11.60;99.90;;;;;;4987882;28;20053;-78
2022/04/13 06:13:20;;;;;;;25.50;16.70;;;11.60;99.90;;;;;;4979714;28;20438;-78
2022/04/13 06:15:46;;;;;;;29.85;18.23;;;11.30;99.90;;;;;;4979424;28;20049;-78
2022/04/13 06:18:12;;;;;;;22.65;16.65;;;11.60;99.90;;;;;;4961423;28;20083;-77
2022/04/13 06:20:37;;;;;;;32.25;17.52;;;12.50;99.90;;;;;;4961156;28;20079;-78
2022/04/13 06:23:03;;;;;;;31.38;18.65;;;12.70;99.90;;;;;;4962456;28;20448;-78
2022/04/13 06:25:28;;;;;;;26.40;17.60;;;11.80;99.90;;;;;;4980035;28;20046;-78
2022/04/13 06:27:54;;;;;;;26.35;18.00;;;11.80;99.90;;;;;;4980104;28;20471;-78
2022/04/13 06:30:19;;;;;;;23.92;16.23;;;11.50;99.90;;;;;;4977273;28;20486;-78
2022/04/13 06:32:46;;;;;;;26.35;17.95;;;11.50;99.90;;;;;;4960898;28;20118;-78
2022/04/13 06:35:16;;;;;;;30.05;18.35;;;11.50;99.90;;;;;;4963392;28;20155;-78
2022/04/13 06:37:43;;;;;;;29.25;18.75;;;11.80;99.90;;;;;;4964230;28;20038;-78
2022/04/13 06:40:10;;;;;;;23.23;17.02;;;11.90;99.90;;;;;;4977783;28;20042;-78
2022/04/13 06:42:37;;;;;;;26.27;17.85;;;12.00;99.90;;;;;;4960177;28;20082;-78
2022/04/13 06:45:14;;;;;;;26.10;16.75;;;12.00;99.90;;;;;;4962232;28;20167;-79
2022/04/13 06:47:40;;;;;;;25.30;17.55;;;12.10;99.90;;;;;;4964341;28;20050;-78
2022/04/13 06:50:07;;;;;;;25.92;17.05;;;12.20;99.90;;;;;;4978549;28;20034;-78
2022/04/13 06:52:37;;;;;;;24.00;16.90;;;12.20;99.90;;;;;;4976890;28;20053;-79
2022/04/13 06:55:04;;;;;;;27.25;17.20;;;13.20;99.90;;;;;;4978063;28;20049;-78
2022/04/13 06:57:33;;;;;;;26.02;17.20;;;12.30;99.90;;;;;;4979140;28;20499;-79
2022/04/13 06:59:59;;;;;;;26.27;18.73;;;13.80;99.90;;;;;;4978886;28;20042;-79
2022/04/13 07:02:26;;;;;;;27.42;17.45;;;12.40;99.90;;;;;;4978302;28;20122;-77
2022/04/13 07:04:53;;;;;;;29.30;16.42;;;12.40;99.90;;;;;;4975440;28;20046;-79
2022/04/13 07:07:19;;;;;;;24.75;16.77;;;12.40;99.90;;;;;;4980230;28;20038;-79
2022/04/13 07:09:45;;;;;;;28.15;17.85;;;12.50;99.90;;;;;;4963110;28;20054;-78
2022/04/13 07:12:10;;;;;;;23.20;16.95;;;12.50;99.90;;;;;;4960974;28;20450;-78
2022/04/13 07:14:36;;;;;;;27.80;15.68;;;12.60;99.90;;;;;;4959984;28;20026;-79
2022/04/13 07:17:02;;;;;;;23.30;16.27;;;12.60;99.90;;;;;;4978142;28;20110;-78
2022/04/13 07:19:27;;;;;;;25.42;17.15;;;12.70;99.90;;;;;;4971778;28;20451;-78
2022/04/13 07:21:53;;;;;;;29.35;17.50;;;12.70;99.90;;;;;;4979581;28;20045;-79
2022/04/13 07:24:18;;;;;;;25.33;15.68;;;12.80;99.90;;;;;;4959455;28;20054;-80
2022/04/13 07:26:44;;;;;;;21.50;15.02;;;13.80;99.90;;;;;;4975845;28;20035;-78
2022/04/13 07:29:10;;;;;;;26.00;14.90;;;13.00;99.90;;;;;;4978331;28;20395;-81
2022/04/13 07:31:35;;;;;;;17.15;13.38;;;13.00;99.90;;;;;;4979050;28;20046;-79
2022/04/13 07:34:02;;;;;;;19.63;13.60;;;13.10;99.90;;;;;;4962584;28;20046;-79
2022/04/13 07:36:28;;;;;;;17.52;11.13;;;13.20;99.90;;;;;;4976376;28;20038;-79
2022/04/13 07:38:53;;;;;;;19.17;11.50;;;13.20;99.90;;;;;;4975412;28;20392;-79
2022/04/13 07:41:19;;;;;;;16.30;12.10;;;13.20;99.90;;;;;;4979577;28;20117;-78
2022/04/13 07:43:45;;;;;;;20.23;12.07;;;13.30;99.90;;;;;;4962934;28;20103;-78
2022/04/13 07:46:11;;;;;;;21.45;14.30;;;13.30;99.90;;;;;;4960808;28;20086;-79
2022/04/13 07:48:36;;;;;;;22.23;12.80;;;13.30;99.90;;;;;;4976216;28;20043;-79
2022/04/13 07:51:02;;;;;;;17.92;11.35;;;13.30;99.90;;;;;;4976743;28;20035;-79
2022/04/13 07:53:28;;;;;;;21.10;11.95;;;13.30;99.90;;;;;;4962418;28;20061;-79
2022/04/13 07:55:53;;;;;;;17.27;11.45;;;13.30;99.90;;;;;;4979046;28;20133;-79
2022/04/13 07:58:19;;;;;;;20.00;12.13;;;13.30;99.90;;;;;;4960798;28;20442;-79
2022/04/13 08:00:44;;;;;;;21.80;13.00;;;13.30;99.90;;;;;;4975021;28;20399;-79
2022/04/13 08:03:10;;;;;;;18.00;12.43;;;13.30;99.90;;;;;;4977800;28;20050;-79
2022/04/13 08:05:35;;;;;;;21.52;12.68;;;13.40;99.90;;;;;;4979145;28;20038;-80
2022/04/13 08:08:01;;;;;;;16.33;11.95;;;13.40;99.90;;;;;;4962369;28;20053;-79
2022/04/13 08:10:26;;;;;;;19.08;12.73;;;13.40;99.90;;;;;;4960031;28;20039;-79
2022/04/13 08:12:52;;;;;;;23.92;13.10;;;13.40;99.90;;;;;;4959668;28;20043;-78
2022/04/13 08:15:18;;;;;;;16.98;11.55;;;13.50;99.90;;;;;;4961400;28;20046;-79
2022/04/13 08:17:44;;;;;;;24.52;12.45;;;13.60;99.90;;;;;;4980635;28;20057;-79
2022/04/13 08:20:13;;;;;;;21.80;12.27;;;13.60;99.90;;;;;;4983094;28;20097;-81
2022/04/13 08:22:40;;;;;;;17.70;10.27;;;13.70;99.90;;;;;;4979174;28;20452;-79
2022/04/13 08:25:05;;;;;;;19.35;10.88;;;13.60;99.90;;;;;;4980812;28;20055;-80
2022/04/13 08:27:31;;;;;;;17.10;10.43;;;13.70;99.90;;;;;;4982287;28;20046;-79
2022/04/13 08:29:57;;;;;;;18.20;10.70;;;13.80;99.90;;;;;;4966635;28;20478;-78
2022/04/13 08:32:22;;;;;;;21.33;9.30;;;13.80;99.90;;;;;;4980327;28;20598;-78
2022/04/13 08:34:54;;;;;;;18.73;9.75;;;13.90;99.90;;;;;;4978526;28;20046;-80
2022/04/13 08:37:21;;;;;;;13.93;8.45;;;14.00;99.90;;;;;;4983142;28;20131;-79
2022/04/13 08:39:47;;;;;;;14.77;8.77;;;14.00;99.90;;;;;;4982339;28;20086;-80
2022/04/13 08:42:34;;;;;;;18.75;10.48;;;14.10;99.90;;;;;;4981831;28;20458;-79
2022/04/13 08:45:23;;;;;;;18.08;10.68;;;14.20;99.90;;;;;;4958464;28;20113;-79
2022/04/13 08:47:56;;;;;;;16.83;11.20;;;14.30;99.90;;;;;;4969660;28;20340;-78
2022/04/13 08:50:27;;;;;;;18.75;11.75;;;14.30;99.90;;;;;;4982150;28;20049;-79
2022/04/13 08:52:57;;;;;;;15.50;11.50;;;14.40;99.90;;;;;;4981965;28;20050;-79
2022/04/13 08:55:23;;;;;;;17.27;11.00;;;14.50;99.90;;;;;;4963859;28;20463;-79
2022/04/13 08:57:54;;;;;;;19.15;11.73;;;14.50;99.90;;;;;;4978254;28;20051;-78
2022/04/13 09:00:21;;;;;;;18.27;11.90;;;14.50;99.90;;;;;;4981231;28;20047;-80
2022/04/13 09:02:50;;;;;;;19.20;12.43;;;14.60;99.90;;;;;;4982563;28;20046;-78
2022/04/13 09:05:18;;;;;;;13.93;10.30;;;14.50;99.90;;;;;;4964662;28;20105;-80
2022/04/13 09:07:48;;;;;;;12.50;9.15;;;14.50;99.90;;;;;;4978353;28;20039;-79
2022/04/13 09:10:19;;;;;;;10.88;8.50;;;14.70;99.90;;;;;;4979239;28;20122;-78
2022/04/13 09:12:46;;;;;;;11.02;7.85;;;14.70;99.90;;;;;;4983090;28;20537;-79
2022/04/13 09:15:13;;;;;;;13.27;8.77;;;15.10;99.90;;;;;;4965171;28;20108;-79
2022/04/13 09:17:40;;;;;;;12.50;7.05;;;14.80;99.90;;;;;;4961944;28;20035;-79
2022/04/13 09:20:06;;;;;;;10.93;7.68;;;14.90;99.90;;;;;;4979447;28;20047;-81
2022/04/13 09:22:34;;;;;;;13.48;8.20;;;14.90;99.90;;;;;;4986003;28;20046;-81
2022/04/13 09:25:02;;;;;;;12.18;7.95;;;15.10;99.90;;;;;;4977183;28;20054;-78
2022/04/13 09:27:28;;;;;;;13.38;7.80;;;15.10;99.90;;;;;;4986539;28;20108;-78
2022/04/13 09:29:54;;;;;;;11.90;7.53;;;15.10;99.90;;;;;;4981501;28;20041;-81
2022/04/13 09:32:20;;;;;;;13.80;8.02;;;15.60;99.90;;;;;;4979522;28;20046;-79
2022/04/13 09:34:46;;;;;;;14.82;7.45;;;15.20;99.90;;;;;;4961896;28;20129;-81
2022/04/13 09:37:13;;;;;;;11.60;7.80;;;15.40;99.90;;;;;;4978093;28;20050;-80
2022/04/13 09:39:39;;;;;;;15.00;7.55;;;15.40;99.90;;;;;;4980801;28;20051;-78
2022/04/13 09:42:05;;;;;;;13.15;7.60;;;15.50;99.90;;;;;;4981404;28;20046;-79
2022/04/13 09:44:32;;;;;;;9.48;5.88;;;15.60;99.90;;;;;;4978411;28;20466;-79
2022/04/13 09:47:12;;;;;;;16.70;7.07;;;15.70;99.90;;;;;;4978431;28;20095;-79
2022/04/13 09:49:46;;;;;;;10.88;6.30;;;15.70;99.90;;;;;;4977833;28;20061;-80
2022/04/13 09:52:12;;;;;;;18.70;10.77;;;15.80;99.90;;;;;;4978870;28;20292;-81
2022/04/13 09:54:47;;;;;;;10.82;7.32;;;15.80;99.90;;;;;;4979042;28;20074;-81
2022/04/13 09:57:24;;;;;;;10.93;6.32;;;15.90;99.90;;;;;;4979010;28;20039;-81
2022/04/13 09:59:58;;;;;;;11.32;8.05;;;17.20;99.90;;;;;;4963608;28;20046;-78
2022/04/13 10:02:38;;;;;;;12.27;7.22;;;16.10;99.90;;;;;;4981041;28;20038;-79
2022/04/13 10:05:05;;;;;;;7.55;5.65;;;16.10;99.90;;;;;;4978589;28;20050;-79
2022/04/13 10:07:31;;;;;;;8.95;4.70;;;16.20;99.90;;;;;;4979085;28;20495;-79
2022/04/13 10:09:57;;;;;;;7.07;4.50;;;16.20;99.90;;;;;;4980795;28;20049;-78
2022/04/13 10:12:22;;;;;;;8.82;4.43;;;16.20;99.90;;;;;;4979751;28;20081;-80
2022/04/13 10:14:48;;;;;;;8.25;4.78;;;16.30;99.90;;;;;;4960391;28;20038;-79
2022/04/13 10:17:15;;;;;;;7.80;5.28;;;16.40;99.90;;;;;;4977799;28;20494;-79
2022/04/13 10:19:42;;;;;;;16.38;5.55;;;16.50;99.90;;;;;;4980633;28;20046;-79
2022/04/13 10:22:08;;;;;;;8.65;4.97;;;16.60;99.90;;;;;;4980937;28;20156;-79
2022/04/13 10:24:37;;;;;;;8.75;4.13;;;16.50;99.90;;;;;;4977961;28;20143;-80
2022/04/13 10:27:05;;;;;;;6.88;4.03;;;16.50;99.90;;;;;;4976294;28;20129;-79
2022/04/13 10:29:33;;;;;;;7.68;4.50;;;16.60;99.90;;;;;;4963144;28;20098;-79
2022/04/13 10:32:12;;;;;;;8.20;4.63;;;16.80;99.90;;;;;;4964107;28;20474;-79
2022/04/13 10:34:40;;;;;;;10.60;4.82;;;16.80;99.90;;;;;;4960626;28;20046;-80
2022/04/13 10:37:07;;;;;;;6.18;3.92;;;16.80;99.90;;;;;;4978191;28;20130;-79
2022/04/13 10:39:34;;;;;;;10.13;5.22;;;16.90;99.90;;;;;;4979778;28;20046;-79
2022/04/13 10:42:02;;;;;;;7.75;4.10;;;17.00;99.90;;;;;;4979102;28;20056;-79
2022/04/13 10:44:53;;;;;;;8.93;3.92;;;17.00;99.90;;;;;;4978682;28;20148;-79
2022/04/13 10:47:40;;;;;;;7.60;3.20;;;17.20;99.90;;;;;;4978614;28;20050;-79
2022/04/13 10:50:07;;;;;;;13.27;3.85;;;17.20;99.90;;;;;;4975663;28;20121;-79
2022/04/13 10:53:17;;;;;;;4.78;3.13;;;17.30;99.90;;;;;;4978231;28;20089;-78
2022/04/13 10:55:50;;;;;;;7.28;3.35;;;17.50;99.90;;;;;;4917079;29;20052;-79
2022/04/13 10:58:38;;;;;;;10.23;4.53;;;17.60;99.90;;;;;;4902147;29;20079;-79
2022/04/13 11:01:11;;;;;;;7.88;4.50;;;17.70;99.90;;;;;;4965178;28;20054;-79
2022/04/13 11:03:37;;;;;;;7.70;4.30;;;18.00;99.90;;;;;;4983743;28;20054;-79
2022/04/13 11:06:05;;;;;;;10.50;4.72;;;18.80;99.90;;;;;;4979324;28;20030;-81
2022/04/13 11:08:54;;;;;;;11.63;4.25;;;17.70;99.90;;;;;;4978548;28;20384;-81
2022/04/13 11:11:22;;;;;;;9.75;4.97;;;18.20;99.90;;;;;;4978982;28;20050;-80
2022/04/13 11:13:52;;;;;;;9.05;5.10;;;17.90;99.90;;;;;;4977837;28;20117;-83
2022/04/13 11:16:25;;;;;;;13.13;5.35;;;17.60;99.90;;;;;;4975340;28;20139;-81
2022/04/13 11:19:06;;;;;;;8.60;4.97;;;17.50;99.90;;;;;;4975987;28;20050;-81
2022/04/13 11:21:54;;;;;;;9.98;4.82;;;17.40;99.90;;;;;;4977366;28;20054;-81
2022/04/13 11:24:56;;;;;;;13.20;5.93;;;17.30;99.90;;;;;;4978836;28;20069;-82
2022/04/13 11:27:23;;;;;;;13.07;5.93;;;17.30;99.90;;;;;;4976173;28;20051;-81
2022/04/13 11:29:58;;;;;;;12.10;7.13;;;17.30;99.90;;;;;;4962989;28;20053;-81
2022/04/13 11:32:33;;;;;;;10.48;5.90;;;18.20;99.90;;;;;;4979410;28;20069;-81
2022/04/13 11:35:00;;;;;;;7.07;4.68;;;17.20;99.90;;;;;;4977340;28;20043;-81
2022/04/13 11:37:35;;;;;;;11.40;6.20;;;17.30;99.90;;;;;;4959659;28;20045;-81
2022/04/13 11:40:07;;;;;;;9.93;5.82;;;17.20;99.90;;;;;;4979394;28;20125;-82
2022/04/13 11:42:36;;;;;;;11.00;6.28;;;17.20;99.90;;;;;;4962275;28;20074;-82
2022/04/13 11:45:16;;;;;;;11.43;5.85;;;17.10;99.90;;;;;;4975423;28;20427;-81
2022/04/13 11:47:49;;;;;;;10.98;4.57;;;17.00;99.90;;;;;;4962270;28;20557;-81
2022/04/13 11:50:14;;;;;;;9.20;3.00;;;16.90;99.90;;;;;;4981283;28;20135;-81
2022/04/13 11:52:43;;;;;;;6.32;3.35;;;17.10;99.90;;;;;;4962471;28;20409;-81
2022/04/13 11:55:37;;;;;;;7.65;4.38;;;16.90;99.90;;;;;;4980066;28;20387;-82
2022/04/13 11:58:08;;;;;;;11.32;5.38;;;16.80;99.90;;;;;;4979996;28;20133;-82
2022/04/13 12:00:56;;;;;;;8.40;4.55;;;16.70;99.90;;;;;;4980506;28;20046;-82
2022/04/13 12:03:32;;;;;;;;;;;16.80;99.90;;;;;;4985188;28;20077;-81
2022/04/13 12:06:03;;;;;;;13.02;5.57;;;16.70;99.90;;;;;;4979133;28;19977;-82
2022/04/13 12:08:35;;;;;;;12.50;5.30;;;16.60;99.90;;;;;;4981019;28;20122;-81
2022/04/13 12:11:12;;;;;;;17.83;6.03;;;16.60;99.90;;;;;;4968080;28;20415;-82
2022/04/13 12:13:58;;;;;;;14.10;5.35;;;16.50;99.90;;;;;;4981243;28;20046;-82
2022/04/13 12:16:29;;;;;;;14.88;4.88;;;16.40;99.90;;;;;;4964065;28;20488;-82
2022/04/13 12:19:03;;;;;;;13.50;5.63;;;16.40;99.90;;;;;;4982812;28;20483;-82
2022/04/13 12:21:31;;;;;;;14.23;5.72;;;16.40;99.90;;;;;;4983378;28;20386;-82
2022/04/13 12:24:00;;;;;;;11.52;5.22;;;16.30;99.90;;;;;;4980596;28;20054;-82
2022/04/13 12:26:41;;;;;;;13.20;5.32;;;16.30;99.90;;;;;;4979219;28;20042;-82
2022/04/13 12:29:18;;;;;;;10.40;5.30;;;16.30;99.90;;;;;;4979334;28;20503;-82
2022/04/13 12:31:49;;;;;;;17.98;6.00;;;16.30;99.90;;;;;;4962089;28;20186;-82
2022/04/13 12:34:16;;;;;;;13.57;5.28;;;16.20;99.90;;;;;;4966588;28;20086;-82
2022/04/13 12:36:48;;;;;;;17.40;6.30;;;16.10;99.90;;;;;;4981414;28;20042;-82
2022/04/13 12:39:13;;;;;;;12.10;6.32;;;16.10;99.90;;;;;;4980025;28;20043;-82